createdAt,value
2023-05-19T00:01:52.419Z,102670.06
2023-05-19T00:04:19.296Z,102669.00
2023-05-19T00:06:50.836Z,102673.53
2023-05-19T00:09:17.997Z,102667.63
2023-05-19T00:11:44.814Z,102661.75
2023-05-19T00:14:11.490Z,102664.50
2023-05-19T00:16:38.785Z,102671.34
2023-05-19T00:19:06.710Z,102669.00
2023-05-19T00:21:33.284Z,102665.56
2023-05-19T00:23:59.849Z,102664.63
2023-05-19T00:26:27.355Z,102663.16
2023-05-19T00:28:54.390Z,102667.78
2023-05-19T00:31:20.995Z,102666.81
2023-05-19T00:33:47.559Z,102656.53
2023-05-19T00:36:14.074Z,102655.81
2023-05-19T00:38:40.611Z,102657.16
2023-05-19T00:41:07.654Z,102652.94
2023-05-19T00:43:37.015Z,102658.00
2023-05-19T00:46:03.951Z,102644.66
2023-05-19T00:48:30.782Z,102643.59
2023-05-19T00:51:04.243Z,102638.97
2023-05-19T00:53:32.194Z,102642.56
2023-05-19T00:55:59.781Z,102632.88
2023-05-19T00:58:30.580Z,102644.56
2023-05-19T01:01:03.844Z,102639.50
2023-05-19T01:03:36.122Z,102640.16
2023-05-19T01:06:07.366Z,102642.91
2023-05-19T01:08:35.698Z,102645.09
2023-05-19T01:11:02.259Z,102646.56
2023-05-19T01:13:29.373Z,102642.38
2023-05-19T01:16:08.076Z,102648.38
2023-05-19T01:18:51.527Z,102642.56
2023-05-19T01:21:44.462Z,102646.38
2023-05-19T01:24:35.813Z,102648.16
2023-05-19T01:27:35.763Z,102644.06
2023-05-19T01:30:25.888Z,102638.81
2023-05-19T01:33:00.980Z,102647.22
2023-05-19T01:35:29.554Z,102646.19
2023-05-19T01:37:58.227Z,102650.47
2023-05-19T01:40:26.941Z,102654.69
2023-05-19T01:42:57.499Z,102651.84
2023-05-19T01:45:25.864Z,102645.97
2023-05-19T01:47:56.780Z,102642.50
2023-05-19T01:50:23.687Z,102649.94
2023-05-19T01:52:50.681Z,102644.78
2023-05-19T01:55:17.822Z,102643.44
2023-05-19T01:58:06.850Z,102643.31
2023-05-19T02:00:46.445Z,102639.22
2023-05-19T02:03:25.189Z,102637.25
2023-05-19T02:06:03.654Z,102639.84
2023-05-19T02:08:39.204Z,102635.56
2023-05-19T02:11:19.709Z,102635.66
2023-05-19T02:13:51.272Z,102636.81
2023-05-19T02:16:18.413Z,102631.75
2023-05-19T02:18:46.292Z,102633.75
2023-05-19T02:21:13.533Z,102623.75
2023-05-19T02:23:41.992Z,102625.25
2023-05-19T02:26:08.818Z,102623.66
2023-05-19T02:28:36.549Z,102626.28
2023-05-19T02:31:05.208Z,102617.88
2023-05-19T02:33:31.711Z,102618.66
2023-05-19T02:35:58.258Z,102627.84
2023-05-19T02:38:24.765Z,102615.06
2023-05-19T02:40:55.422Z,102620.19
2023-05-19T02:43:21.846Z,102614.94
2023-05-19T02:45:48.817Z,102612.31
2023-05-19T02:48:15.612Z,102610.84
2023-05-19T02:50:42.978Z,102606.53
2023-05-19T02:53:09.450Z,102609.25
2023-05-19T02:55:36.627Z,102600.84
2023-05-19T02:58:03.153Z,102611.34
2023-05-19T03:00:29.693Z,102604.84
2023-05-19T03:02:56.363Z,102609.94
2023-05-19T03:05:22.900Z,102606.78
2023-05-19T03:07:49.362Z,102606.97
2023-05-19T03:10:16.163Z,102601.19
2023-05-19T03:12:42.651Z,102603.69
2023-05-19T03:15:09.482Z,102605.81
2023-05-19T03:17:36.453Z,102611.97
2023-05-19T03:20:03.109Z,102604.19
2023-05-19T03:22:30.094Z,102609.56
2023-05-19T03:24:58.561Z,102609.75
2023-05-19T03:27:25.101Z,102608.91
2023-05-19T03:29:52.795Z,102606.47
2023-05-19T03:32:19.484Z,102606.56
2023-05-19T03:34:45.940Z,102603.13
2023-05-19T03:37:13.012Z,102604.06
2023-05-19T03:39:39.498Z,102603.84
2023-05-19T03:42:06.309Z,102604.81
2023-05-19T03:44:32.832Z,102604.06
2023-05-19T03:46:59.386Z,102611.00
2023-05-19T03:49:25.875Z,102614.34
2023-05-19T03:51:52.397Z,102607.53
2023-05-19T03:54:19.104Z,102604.50
2023-05-19T03:56:46.062Z,102614.34
2023-05-19T03:59:12.863Z,102616.03
2023-05-19T04:01:39.380Z,102612.78
2023-05-19T04:04:05.987Z,102614.34
2023-05-19T04:06:33.814Z,102624.84
2023-05-19T04:09:00.332Z,102621.03
2023-05-19T04:11:26.953Z,102629.00
2023-05-19T04:13:56.066Z,102629.75
2023-05-19T04:16:22.790Z,102623.25
2023-05-19T04:18:49.428Z,102629.56
2023-05-19T04:21:15.991Z,102632.06
2023-05-19T04:23:42.495Z,102626.19
2023-05-19T04:26:09.007Z,102621.22
2023-05-19T04:28:39.034Z,102626.38
2023-05-19T04:31:11.228Z,102625.31
2023-05-19T04:33:37.995Z,102626.19
2023-05-19T04:36:05.522Z,102628.41
2023-05-19T04:38:31.980Z,102622.44
2023-05-19T04:41:01.736Z,102623.34
2023-05-19T04:43:28.388Z,102616.53
2023-05-19T04:45:55.176Z,102612.78
2023-05-19T04:48:24.740Z,102616.13
2023-05-19T04:50:51.980Z,102613.41
2023-05-19T04:53:18.690Z,102609.09
2023-05-19T04:55:45.436Z,102612.19
2023-05-19T04:58:12.108Z,102613.22
2023-05-19T05:00:38.808Z,102618.44
2023-05-19T05:03:06.359Z,102614.69
2023-05-19T05:05:32.943Z,102615.44
2023-05-19T05:07:59.769Z,102624.16
2023-05-19T05:10:26.392Z,102615.34
2023-05-19T05:12:53.147Z,102623.00
2023-05-19T05:15:20.352Z,102618.50
2023-05-19T05:17:47.258Z,102624.13
2023-05-19T05:20:14.360Z,102626.66
2023-05-19T05:22:42.034Z,102630.00
2023-05-19T05:25:09.220Z,102632.31
2023-05-19T05:27:36.528Z,102628.69
2023-05-19T05:30:03.460Z,102628.56
2023-05-19T05:32:30.328Z,102639.59
2023-05-19T05:34:57.175Z,102635.09
2023-05-19T05:37:23.694Z,102636.56
2023-05-19T05:39:50.254Z,102633.63
2023-05-19T05:42:16.697Z,102638.78
2023-05-19T05:44:43.200Z,102637.75
2023-05-19T05:47:11.821Z,102636.69
2023-05-19T05:49:39.205Z,102639.72
2023-05-19T05:52:08.219Z,102632.59
2023-05-19T05:54:35.194Z,102642.81
2023-05-19T05:57:02.494Z,102639.13
2023-05-19T05:59:29.153Z,102635.56
2023-05-19T06:01:55.683Z,102639.53
2023-05-19T06:04:22.209Z,102640.28
2023-05-19T06:06:48.822Z,102637.34
2023-05-19T06:09:15.492Z,102630.22
2023-05-19T06:11:41.972Z,102633.56
2023-05-19T06:14:08.460Z,102634.31
2023-05-19T06:16:35.098Z,102633.16
2023-05-19T06:19:01.558Z,102624.84
2023-05-19T06:21:28.162Z,102629.81
2023-05-19T06:23:54.787Z,102631.03
2023-05-19T06:26:21.486Z,102639.34
2023-05-19T06:28:48.018Z,102627.88
2023-05-19T06:31:14.579Z,102632.78
2023-05-19T06:33:41.224Z,102632.41
2023-05-19T06:36:10.043Z,102633.00
2023-05-19T06:38:36.577Z,102631.09
2023-05-19T06:41:03.053Z,102629.84
2023-05-19T06:43:30.249Z,102625.31
2023-05-19T06:45:56.776Z,102630.53
2023-05-19T06:48:23.230Z,102621.38
2023-05-19T06:50:50.801Z,102627.03
2023-05-19T06:53:19.897Z,102622.06
2023-05-19T06:55:58.045Z,102630.50
2023-05-19T06:58:26.895Z,102633.63
2023-05-19T07:00:53.684Z,102634.13
2023-05-19T07:03:20.251Z,102624.94
2023-05-19T07:05:47.413Z,102621.84
2023-05-19T07:08:13.870Z,102622.28
2023-05-19T07:10:40.295Z,102623.59
2023-05-19T07:13:06.942Z,102631.03
2023-05-19T07:15:33.795Z,102632.38
2023-05-19T07:18:00.581Z,102632.13
2023-05-19T07:20:27.197Z,102632.66
2023-05-19T07:22:53.723Z,102632.28
2023-05-19T07:25:20.256Z,102625.94
2023-05-19T07:27:46.797Z,102631.63
2023-05-19T07:30:13.360Z,102637.97
2023-05-19T07:32:40.074Z,102632.13
2023-05-19T07:35:06.969Z,102641.25
2023-05-19T07:37:33.591Z,102636.00
2023-05-19T07:40:00.252Z,102630.25
2023-05-19T07:42:26.819Z,102629.78
2023-05-19T07:44:53.413Z,102633.25
2023-05-19T07:47:20.023Z,102631.81
2023-05-19T07:49:48.185Z,102626.81
2023-05-19T07:52:18.265Z,102619.13
2023-05-19T07:54:45.557Z,102625.47
2023-05-19T07:57:12.475Z,102624.50
2023-05-19T07:59:38.996Z,102624.34
2023-05-19T08:02:05.738Z,102623.72
2023-05-19T08:04:33.037Z,102618.19
2023-05-19T08:06:59.742Z,102618.25
2023-05-19T08:09:26.672Z,102610.69
2023-05-19T08:11:53.625Z,102610.88
2023-05-19T08:14:22.721Z,102608.72
2023-05-19T08:16:49.982Z,102599.28
2023-05-19T08:19:16.811Z,102606.75
2023-05-19T08:21:43.362Z,102603.28
2023-05-19T08:24:09.987Z,102598.97
2023-05-19T08:26:37.734Z,102593.94
2023-05-19T08:29:04.674Z,102604.66
2023-05-19T08:31:31.433Z,102593.44
2023-05-19T08:33:58.075Z,102589.06
2023-05-19T08:36:24.850Z,102586.66
2023-05-19T08:38:51.517Z,102580.34
2023-05-19T08:41:18.107Z,102579.59
2023-05-19T08:43:45.397Z,102577.16
2023-05-19T08:46:14.377Z,102576.06
2023-05-19T08:48:42.807Z,102569.16
2023-05-19T08:51:27.365Z,102574.00
2023-05-19T08:54:00.354Z,102561.00
2023-05-19T08:56:27.610Z,102563.75
2023-05-19T08:58:56.533Z,102552.16
2023-05-19T09:01:23.962Z,102554.84
2023-05-19T09:03:51.801Z,102547.56
2023-05-19T09:06:18.688Z,102547.38
2023-05-19T09:08:45.215Z,102547.81
2023-05-19T09:11:12.264Z,102553.94
2023-05-19T09:13:39.057Z,102548.06
2023-05-19T09:16:05.822Z,102547.63
2023-05-19T09:18:32.524Z,102542.72
2023-05-19T09:21:02.624Z,102540.56
2023-05-19T09:23:33.621Z,102531.59
2023-05-19T09:26:05.081Z,102537.03
2023-05-19T09:28:35.766Z,102534.50
2023-05-19T09:31:04.374Z,102525.41
2023-05-19T09:33:33.835Z,102526.75
2023-05-19T09:36:00.648Z,102531.84
2023-05-19T09:38:27.697Z,102524.16
2023-05-19T09:40:57.631Z,102520.06
2023-05-19T09:43:24.446Z,102520.31
2023-05-19T09:45:59.014Z,102517.94
2023-05-19T09:48:27.790Z,102510.44
2023-05-19T09:50:54.795Z,102516.97
2023-05-19T09:53:21.775Z,102514.13
2023-05-19T09:55:52.499Z,102522.78
2023-05-19T09:58:19.155Z,102518.63
2023-05-19T10:00:47.500Z,102519.47
2023-05-19T10:03:14.747Z,102528.78
2023-05-19T10:05:44.185Z,102528.59
2023-05-19T10:08:11.972Z,102519.28
2023-05-19T10:10:38.997Z,102517.03
2023-05-19T10:13:06.377Z,102518.78
2023-05-19T10:15:40.757Z,102516.09
2023-05-19T10:18:11.964Z,102506.59
2023-05-19T10:20:39.608Z,102499.06
2023-05-19T10:23:06.129Z,102502.84
2023-05-19T10:25:34.197Z,102501.25
2023-05-19T10:28:05.472Z,102500.22
2023-05-19T10:30:38.060Z,102504.84
2023-05-19T10:33:08.010Z,102496.09
2023-05-19T10:36:26.338Z,102490.66
2023-05-19T10:39:06.331Z,102492.25
2023-05-19T10:41:46.876Z,102487.72
2023-05-19T10:44:30.547Z,102487.25
2023-05-19T10:46:57.401Z,102477.78
2023-05-19T10:49:24.325Z,102485.50
2023-05-19T10:51:52.301Z,102484.63
2023-05-19T10:54:40.906Z,102489.06
2023-05-19T10:57:08.306Z,102477.38
2023-05-19T10:59:37.214Z,102476.34
2023-05-19T11:02:05.297Z,102481.13
2023-05-19T11:04:52.355Z,102480.09
2023-05-19T11:07:21.008Z,102474.59
2023-05-19T11:09:51.862Z,102472.88
2023-05-19T11:12:24.744Z,102463.63
2023-05-19T11:14:55.377Z,102460.06
2023-05-19T11:17:24.566Z,102473.72
2023-05-19T11:19:55.528Z,102457.91
2023-05-19T11:22:28.700Z,102472.81
2023-05-19T11:24:55.642Z,102460.84
2023-05-19T11:27:24.931Z,102465.63
2023-05-19T11:29:52.378Z,102463.78
2023-05-19T11:32:21.322Z,102456.97
2023-05-19T11:34:50.127Z,102456.56
2023-05-19T11:37:16.854Z,102455.53
2023-05-19T11:39:46.180Z,102457.44
2023-05-19T11:42:12.881Z,102452.53
2023-05-19T11:44:41.179Z,102446.91
2023-05-19T11:47:08.459Z,102451.09
2023-05-19T11:49:35.147Z,102450.28
2023-05-19T11:52:04.683Z,102446.34
2023-05-19T11:54:32.899Z,102455.66
2023-05-19T11:57:03.778Z,102448.81
2023-05-19T11:59:36.292Z,102444.88
2023-05-19T12:02:15.715Z,102443.47
2023-05-19T12:04:42.459Z,102436.81
2023-05-19T12:07:10.807Z,102434.56
2023-05-19T12:09:37.914Z,102430.81
2023-05-19T12:12:05.044Z,102429.78
2023-05-19T12:14:31.737Z,102430.38
2023-05-19T12:16:58.246Z,102430.75
2023-05-19T12:19:26.001Z,102428.69
2023-05-19T12:21:53.747Z,102427.56
2023-05-19T12:24:20.734Z,102437.47
2023-05-19T12:26:47.393Z,102425.06
2023-05-19T12:29:14.244Z,102421.38
2023-05-19T12:31:40.856Z,102427.38
2023-05-19T12:34:07.492Z,102431.13
2023-05-19T12:36:34.190Z,102432.16
2023-05-19T12:39:00.892Z,102429.00
2023-05-19T12:41:27.544Z,102422.75
2023-05-19T12:43:56.930Z,102428.06
2023-05-19T12:46:23.468Z,102422.19
2023-05-19T12:48:50.098Z,102413.97
2023-05-19T12:51:18.087Z,102412.84
2023-05-19T12:53:45.719Z,102411.03
2023-05-19T12:56:17.163Z,102410.16
2023-05-19T12:58:44.443Z,102409.94
2023-05-19T13:01:18.677Z,102406.41
2023-05-19T13:03:46.391Z,102404.56
2023-05-19T13:06:13.063Z,102395.97
2023-05-19T13:08:42.586Z,102402.06
2023-05-19T13:11:09.076Z,102397.94
2023-05-19T13:13:35.579Z,102390.66
2023-05-19T13:16:02.176Z,102387.69
2023-05-19T13:18:31.996Z,102380.63
2023-05-19T13:20:58.576Z,102386.75
2023-05-19T13:23:26.302Z,102377.19
2023-05-19T13:25:52.858Z,102375.25
2023-05-19T13:28:19.398Z,102378.41
2023-05-19T13:30:46.409Z,102372.34
2023-05-19T13:33:13.079Z,102371.78
2023-05-19T13:35:39.795Z,102374.97
2023-05-19T13:38:09.593Z,102375.81
2023-05-19T13:40:36.815Z,102373.22
2023-05-19T13:43:04.224Z,102375.66
2023-05-19T13:45:30.926Z,102365.84
2023-05-19T13:47:57.548Z,102367.88
2023-05-19T13:50:24.134Z,102360.31
2023-05-19T13:52:50.709Z,102363.31
2023-05-19T13:55:17.473Z,102358.25
2023-05-19T13:57:44.857Z,102348.56
2023-05-19T14:00:11.774Z,102353.03
2023-05-19T14:02:38.332Z,102353.13
2023-05-19T14:05:05.997Z,102342.69
2023-05-19T14:07:34.914Z,102337.19
2023-05-19T14:10:02.693Z,102343.81
2023-05-19T14:12:39.351Z,102348.91
2023-05-19T14:15:14.348Z,102346.84
2023-05-19T14:17:41.006Z,102333.53
2023-05-19T14:20:08.464Z,102334.88
2023-05-19T14:22:35.235Z,102329.25
2023-05-19T14:25:02.412Z,102326.88
2023-05-19T14:27:29.056Z,102330.97
2023-05-19T14:29:55.753Z,102331.38
2023-05-19T14:32:22.353Z,102329.72
2023-05-19T14:34:52.761Z,102325.28
2023-05-19T14:37:20.365Z,102334.16
2023-05-19T14:39:46.944Z,102322.47
2023-05-19T14:42:13.545Z,102326.56
2023-05-19T14:44:40.088Z,102335.09
2023-05-19T14:47:07.491Z,102318.38
2023-05-19T14:49:34.463Z,102328.53
2023-05-19T14:52:01.293Z,102314.50
2023-05-19T14:54:28.155Z,102318.88
2023-05-19T14:56:54.758Z,102317.78
2023-05-19T14:59:21.817Z,102313.31
2023-05-19T15:01:48.648Z,102305.44
2023-05-19T15:04:15.633Z,102312.34
2023-05-19T15:06:42.257Z,102309.34
2023-05-19T15:09:09.414Z,102302.53
2023-05-19T15:11:35.847Z,102310.09
2023-05-19T15:14:02.538Z,102301.94
2023-05-19T15:16:29.344Z,102306.19
2023-05-19T15:18:55.943Z,102309.19
2023-05-19T15:21:22.579Z,102304.41
2023-05-19T15:23:49.090Z,102301.56
2023-05-19T15:26:15.596Z,102305.81
2023-05-19T15:28:42.394Z,102312.94
2023-05-19T15:31:08.885Z,102304.69
2023-05-19T15:33:35.542Z,102304.84
2023-05-19T15:36:02.248Z,102311.28
2023-05-19T15:38:30.147Z,102311.53
2023-05-19T15:40:57.239Z,102299.59
2023-05-19T15:43:23.821Z,102296.88
2023-05-19T15:45:52.257Z,102297.59
2023-05-19T15:48:19.295Z,102291.41
2023-05-19T15:50:45.923Z,102282.78
2023-05-19T15:53:12.543Z,102289.44
2023-05-19T15:55:39.002Z,102288.56
2023-05-19T15:58:05.817Z,102284.88
2023-05-19T16:00:32.640Z,102278.13
2023-05-19T16:02:59.436Z,102280.91
2023-05-19T16:05:26.259Z,102282.00
2023-05-19T16:07:52.708Z,102277.44
2023-05-19T16:10:19.269Z,102269.63
2023-05-19T16:12:45.838Z,102270.44
2023-05-19T16:15:12.480Z,102281.50
2023-05-19T16:17:39.050Z,102277.94
2023-05-19T16:20:06.467Z,102275.84
2023-05-19T16:22:33.010Z,102272.09
2023-05-19T16:24:59.661Z,102276.88
2023-05-19T16:27:26.559Z,102274.06
2023-05-19T16:29:53.170Z,102273.66
2023-05-19T16:32:19.769Z,102265.22
2023-05-19T16:34:46.542Z,102260.00
2023-05-19T16:37:13.059Z,102256.69
2023-05-19T16:39:40.262Z,102258.00
2023-05-19T16:42:07.278Z,102272.16
2023-05-19T16:44:33.762Z,102269.88
2023-05-19T16:47:00.281Z,102270.78
2023-05-19T16:49:26.814Z,102271.81
2023-05-19T16:51:54.154Z,102266.63
2023-05-19T16:54:21.248Z,102267.88
2023-05-19T16:56:47.946Z,102275.75
2023-05-19T16:59:14.515Z,102272.88
2023-05-19T17:01:41.635Z,102267.59
2023-05-19T17:04:08.417Z,102267.81
2023-05-19T17:06:35.053Z,102276.34
2023-05-19T17:09:02.048Z,102268.91
2023-05-19T17:11:28.638Z,102268.91
2023-05-19T17:13:55.117Z,102279.44
2023-05-19T17:16:21.661Z,102279.41
2023-05-19T17:18:48.341Z,102275.44
2023-05-19T17:21:14.884Z,102272.53
2023-05-19T17:23:41.861Z,102272.31
2023-05-19T17:26:08.890Z,102269.97
2023-05-19T17:28:35.652Z,102270.75
2023-05-19T17:31:09.592Z,102274.03
2023-05-19T17:33:36.200Z,102272.50
2023-05-19T17:36:04.236Z,102272.81
2023-05-19T17:38:32.275Z,102274.47
2023-05-19T17:41:01.461Z,102284.03
2023-05-19T17:43:28.297Z,102279.19
2023-05-19T17:45:54.951Z,102275.44
2023-05-19T17:48:21.475Z,102267.88
2023-05-19T17:50:48.439Z,102269.88
2023-05-19T17:53:16.159Z,102273.63
2023-05-19T17:55:50.247Z,102274.19
2023-05-19T17:58:17.812Z,102277.19
2023-05-19T18:00:44.760Z,102277.94
2023-05-19T18:03:11.791Z,102277.78
2023-05-19T18:05:40.291Z,102276.13
2023-05-19T18:08:09.378Z,102280.97
2023-05-19T18:10:38.131Z,102281.03
2023-05-19T18:13:05.892Z,102280.91
2023-05-19T18:15:32.443Z,102283.25
2023-05-19T18:17:59.260Z,102284.38
2023-05-19T18:20:25.955Z,102294.59
2023-05-19T18:22:52.555Z,102293.22
2023-05-19T18:25:20.309Z,102291.66
2023-05-19T18:27:47.497Z,102302.09
2023-05-19T18:30:14.118Z,102289.38
2023-05-19T18:32:41.101Z,102297.66
2023-05-19T18:35:09.224Z,102300.75
2023-05-19T18:37:35.775Z,102301.28
2023-05-19T18:40:02.610Z,102298.69
2023-05-19T18:42:29.260Z,102292.66
2023-05-19T18:44:55.806Z,102296.72
2023-05-19T18:47:23.099Z,102298.63
2023-05-19T18:49:50.400Z,102297.84
2023-05-19T18:52:16.976Z,102295.97
2023-05-19T18:54:48.776Z,102307.00
2023-05-19T18:57:15.453Z,102306.03
2023-05-19T18:59:41.998Z,102299.06
2023-05-19T19:02:08.624Z,102303.63
2023-05-19T19:04:35.230Z,102306.81
2023-05-19T19:07:01.908Z,102304.38
2023-05-19T19:09:28.390Z,102316.09
2023-05-19T19:11:54.952Z,102309.28
2023-05-19T19:14:21.435Z,102326.31
2023-05-19T19:16:48.192Z,102319.00
2023-05-19T19:19:14.814Z,102323.50
2023-05-19T19:21:42.236Z,102330.34
2023-05-19T19:24:08.862Z,102328.53
2023-05-19T19:26:35.474Z,102328.72
2023-05-19T19:29:05.631Z,102340.53
2023-05-19T19:31:33.406Z,102334.22
2023-05-19T19:34:03.804Z,102346.56
2023-05-19T19:36:31.959Z,102339.72
2023-05-19T19:38:59.157Z,102345.06
2023-05-19T19:41:31.109Z,102345.25
2023-05-19T19:43:58.033Z,102348.38
2023-05-19T19:46:24.649Z,102353.53
2023-05-19T19:48:51.379Z,102353.53
2023-05-19T19:51:18.228Z,102358.00
2023-05-19T19:53:44.732Z,102361.31
2023-05-19T19:56:11.784Z,102360.97
2023-05-19T19:58:38.543Z,102367.09
2023-05-19T20:01:06.320Z,102372.72
2023-05-19T20:03:33.463Z,102374.84
2023-05-19T20:06:00.798Z,102375.00
2023-05-19T20:08:28.069Z,102373.81
2023-05-19T20:10:55.183Z,102370.47
2023-05-19T20:13:21.695Z,102376.31
2023-05-19T20:15:48.293Z,102367.13
2023-05-19T20:18:14.908Z,102383.56
2023-05-19T20:20:42.103Z,102378.72
2023-05-19T20:23:08.973Z,102377.88
2023-05-19T20:25:53.675Z,102383.22
2023-05-19T20:28:25.833Z,102381.69
2023-05-19T20:30:52.468Z,102374.16
2023-05-19T20:33:19.062Z,102373.69
2023-05-19T20:35:45.881Z,102374.66
2023-05-19T20:38:12.655Z,102369.81
2023-05-19T20:40:39.201Z,102375.06
2023-05-19T20:43:05.789Z,102369.16
2023-05-19T20:45:32.610Z,102373.88
2023-05-19T20:47:59.541Z,102378.53
2023-05-19T20:50:26.243Z,102390.97
2023-05-19T20:52:53.042Z,102383.63
2023-05-19T20:55:19.859Z,102381.50
2023-05-19T20:57:46.316Z,102381.13
2023-05-19T21:00:13.623Z,102377.03
2023-05-19T21:02:40.148Z,102387.97
2023-05-19T21:05:07.098Z,102389.09
2023-05-19T21:07:33.659Z,102388.41
2023-05-19T21:10:00.271Z,102378.03
2023-05-19T21:12:28.920Z,102395.41
2023-05-19T21:14:55.538Z,102396.00
2023-05-19T21:17:22.146Z,102384.19
2023-05-19T21:19:50.437Z,102400.41
2023-05-19T21:22:17.542Z,102398.81
2023-05-19T21:24:44.040Z,102389.97
2023-05-19T21:27:10.705Z,102399.59
2023-05-19T21:29:37.243Z,102402.81
2023-05-19T21:32:04.056Z,102402.00
2023-05-19T21:34:30.539Z,102402.31
2023-05-19T21:36:57.327Z,102403.28
2023-05-19T21:39:23.981Z,102392.06
2023-05-19T21:41:51.419Z,102403.75
2023-05-19T21:44:18.200Z,102403.81
2023-05-19T21:46:44.730Z,102410.19
2023-05-19T21:49:11.226Z,102406.84
2023-05-19T21:51:37.837Z,102413.75
2023-05-19T21:54:04.294Z,102407.91
2023-05-19T21:56:30.757Z,102412.25
2023-05-19T21:58:57.202Z,102408.53
2023-05-19T22:01:23.777Z,102418.31
2023-05-19T22:03:50.392Z,102408.13
2023-05-19T22:06:16.896Z,102405.41
2023-05-19T22:08:43.383Z,102407.63
2023-05-19T22:11:09.879Z,102401.28
2023-05-19T22:13:41.320Z,102408.06
2023-05-19T22:16:08.223Z,102409.50
2023-05-19T22:18:34.816Z,102400.84
2023-05-19T22:21:01.388Z,102409.63
2023-05-19T22:23:27.850Z,102403.25
2023-05-19T22:25:54.337Z,102406.19
2023-05-19T22:28:21.342Z,102415.66
2023-05-19T22:30:47.771Z,102410.78
2023-05-19T22:33:14.708Z,102410.38
2023-05-19T22:35:41.959Z,102413.19
2023-05-19T22:38:10.510Z,102414.59
2023-05-19T22:40:37.427Z,102404.03
2023-05-19T22:43:03.976Z,102413.34
2023-05-19T22:45:31.516Z,102403.06
2023-05-19T22:47:58.130Z,102411.44
2023-05-19T22:50:24.818Z,102421.28
2023-05-19T22:52:51.439Z,102412.78
2023-05-19T22:55:17.938Z,102410.84
2023-05-19T22:57:44.560Z,102405.97
2023-05-19T23:00:14.092Z,102408.19
2023-05-19T23:02:41.793Z,102406.13
2023-05-19T23:05:09.107Z,102400.28
2023-05-19T23:07:35.720Z,102401.53
2023-05-19T23:10:03.469Z,102396.38
2023-05-19T23:12:30.022Z,102399.44
2023-05-19T23:14:56.619Z,102401.09
2023-05-19T23:17:23.069Z,102400.00
2023-05-19T23:19:49.578Z,102404.31
2023-05-19T23:22:16.092Z,102396.25
2023-05-19T23:24:42.774Z,102406.81
2023-05-19T23:27:09.302Z,102401.66
2023-05-19T23:29:35.915Z,102400.28
2023-05-19T23:32:02.411Z,102395.13
2023-05-19T23:34:29.081Z,102401.25
2023-05-19T23:36:55.768Z,102400.00
2023-05-19T23:39:25.114Z,102407.63
2023-05-19T23:41:51.759Z,102399.16
2023-05-19T23:44:18.539Z,102399.69
2023-05-19T23:46:45.133Z,102404.84
2023-05-19T23:49:11.821Z,102398.72
2023-05-19T23:51:38.277Z,102407.22
2023-05-19T23:54:04.791Z,102408.59
2023-05-19T23:56:31.366Z,102404.41
2023-05-19T23:58:57.929Z,102402.16
